sensor_id;sensor_type;location;lat;lon;timestamp;pressure;altitude;pressure_sealevel;temperature;humidity
82041;BME280;71612;44.776;20.472;2023-08-30T00:00:18;98687.78;;;30.92;36.02
82041;BME280;71612;44.776;20.472;2023-08-30T00:02:44;98674.78;;;30.88;36.04
82041;BME280;71612;44.776;20.472;2023-08-30T00:05:10;98702.75;;;30.98;35.95
82041;BME280;71612;44.776;20.472;2023-08-30T00:07:36;98688.13;;;30.86;36.22
82041;BME280;71612;44.776;20.472;2023-08-30T00:10:02;98713.38;;;30.99;35.59
82041;BME280;71612;44.776;20.472;2023-08-30T00:12:28;98699.19;;;30.97;36.49
82041;BME280;71612;44.776;20.472;2023-08-30T00:14:53;98703.16;;;30.96;36.14
82041;BME280;71612;44.776;20.472;2023-08-30T00:17:19;98688.91;;;30.83;36.68
82041;BME280;71612;44.776;20.472;2023-08-30T00:19:45;98677.44;;;30.78;36.23
82041;BME280;71612;44.776;20.472;2023-08-30T00:22:10;98706.66;;;30.93;36.48
82041;BME280;71612;44.776;20.472;2023-08-30T00:24:37;98699.91;;;30.83;36.30
82041;BME280;71612;44.776;20.472;2023-08-30T00:27:03;98724.78;;;30.98;36.35
82041;BME280;71612;44.776;20.472;2023-08-30T00:29:29;98704.69;;;30.90;36.21
82041;BME280;71612;44.776;20.472;2023-08-30T00:31:55;98720.84;;;30.95;36.44
82041;BME280;71612;44.776;20.472;2023-08-30T00:34:20;98707.38;;;30.83;36.54
82041;BME280;71612;44.776;20.472;2023-08-30T00:36:46;98724.78;;;30.94;36.32
82041;BME280;71612;44.776;20.472;2023-08-30T00:39:11;98696.72;;;30.74;36.42
82041;BME280;71612;44.776;20.472;2023-08-30T00:41:37;98705.03;;;30.81;36.63
82041;BME280;71612;44.776;20.472;2023-08-30T00:44:02;98708.63;;;30.89;36.50
82041;BME280;71612;44.776;20.472;2023-08-30T00:46:28;98694.00;;;30.81;36.29
82041;BME280;71612;44.776;20.472;2023-08-30T00:48:54;98719.66;;;30.93;35.96
82041;BME280;71612;44.776;20.472;2023-08-30T00:51:20;98708.22;;;30.87;36.61
82041;BME280;71612;44.776;20.472;2023-08-30T00:53:46;98694.38;;;30.80;36.79
82041;BME280;71612;44.776;20.472;2023-08-30T00:56:12;98712.50;;;30.84;36.67
82041;BME280;71612;44.776;20.472;2023-08-30T00:58:38;98708.53;;;30.78;36.40
82041;BME280;71612;44.776;20.472;2023-08-30T01:01:04;98736.56;;;30.91;36.59
82041;BME280;71612;44.776;20.472;2023-08-30T01:03:33;98736.16;;;30.89;36.61
82041;BME280;71612;44.776;20.472;2023-08-30T01:05:59;98740.91;;;30.92;36.20
82041;BME280;71612;44.776;20.472;2023-08-30T01:08:24;98735.34;;;30.88;36.46
82041;BME280;71612;44.776;20.472;2023-08-30T01:11:05;98734.91;;;30.83;36.38
82041;BME280;71612;44.776;20.472;2023-08-30T01:13:40;98736.16;;;30.89;36.79
82041;BME280;71612;44.776;20.472;2023-08-30T01:16:08;98746.75;;;30.87;36.44
82041;BME280;71612;44.776;20.472;2023-08-30T01:18:35;98755.44;;;30.89;36.41
82041;BME280;71612;44.776;20.472;2023-08-30T01:21:03;98755.44;;;30.89;36.67
82041;BME280;71612;44.776;20.472;2023-08-30T01:23:44;98750.31;;;30.88;36.86
82041;BME280;71612;44.776;20.472;2023-08-30T01:26:35;98768.03;;;30.90;36.08
82041;BME280;71612;44.776;20.472;2023-08-30T01:29:04;98747.50;;;30.84;36.02
82041;BME280;71612;44.776;20.472;2023-08-30T01:31:32;98751.44;;;30.83;36.45
82041;BME280;71612;44.776;20.472;2023-08-30T01:34:00;98755.75;;;30.84;36.65
82041;BME280;71612;44.776;20.472;2023-08-30T01:36:27;98758.16;;;30.85;36.21
82041;BME280;71612;44.776;20.472;2023-08-30T01:38:53;98731.69;;;30.70;36.42
82041;BME280;71612;44.776;20.472;2023-08-30T01:41:19;98763.28;;;30.87;36.27
82041;BME280;71612;44.776;20.472;2023-08-30T01:43:47;98755.38;;;30.85;36.79
82041;BME280;71612;44.776;20.472;2023-08-30T01:46:14;98755.81;;;30.88;36.59
82041;BME280;71612;44.776;20.472;2023-08-30T01:48:42;98730.91;;;30.70;36.39
82041;BME280;71612;44.776;20.472;2023-08-30T01:51:08;98730.16;;;30.73;36.27
82041;BME280;71612;44.776;20.472;2023-08-30T01:53:34;98746.72;;;30.83;36.42
82041;BME280;71612;44.776;20.472;2023-08-30T01:56:00;98743.53;;;30.78;36.74
82041;BME280;71612;44.776;20.472;2023-08-30T01:58:25;98741.19;;;30.80;36.22
82041;BME280;71612;44.776;20.472;2023-08-30T02:00:51;98753.00;;;30.84;36.72
82041;BME280;71612;44.776;20.472;2023-08-30T02:03:16;98747.47;;;30.77;36.22
82041;BME280;71612;44.776;20.472;2023-08-30T02:06:04;98756.94;;;30.83;36.79
82041;BME280;71612;44.776;20.472;2023-08-30T02:08:41;98725.38;;;30.66;36.34
82041;BME280;71612;44.776;20.472;2023-08-30T02:11:14;98717.06;;;30.59;36.48
82041;BME280;71612;44.776;20.472;2023-08-30T02:13:43;98750.22;;;30.77;36.98
82041;BME280;71612;44.776;20.472;2023-08-30T02:16:11;98739.97;;;30.70;36.59
82041;BME280;71612;44.776;20.472;2023-08-30T02:18:38;98737.22;;;30.74;36.10
82041;BME280;71612;44.776;20.472;2023-08-30T02:21:03;98720.63;;;30.60;36.68
82041;BME280;71612;44.776;20.472;2023-08-30T02:23:29;98729.69;;;30.67;37.07
82041;BME280;71612;44.776;20.472;2023-08-30T02:25:54;98721.38;;;30.60;36.88
82041;BME280;71612;44.776;20.472;2023-08-30T02:28:21;98741.97;;;30.77;36.42
82041;BME280;71612;44.776;20.472;2023-08-30T02:30:46;98743.91;;;30.76;37.23
82041;BME280;71612;44.776;20.472;2023-08-30T02:33:12;98726.19;;;30.70;36.72
82041;BME280;71612;44.776;20.472;2023-08-30T02:35:37;98727.38;;;30.73;36.84
82041;BME280;71612;44.776;20.472;2023-08-30T02:38:02;98734.88;;;30.76;36.42
82041;BME280;71612;44.776;20.472;2023-08-30T02:40:30;98731.31;;;30.75;36.49
82041;BME280;71612;44.776;20.472;2023-08-30T02:42:56;98730.16;;;30.76;36.91
82041;BME280;71612;44.776;20.472;2023-08-30T02:45:22;98739.56;;;30.75;36.82
82041;BME280;71612;44.776;20.472;2023-08-30T02:47:48;98713.59;;;30.69;36.92
82041;BME280;71612;44.776;20.472;2023-08-30T02:50:13;98719.91;;;30.73;37.19
82041;BME280;71612;44.776;20.472;2023-08-30T02:52:39;98713.63;;;30.73;37.03
82041;BME280;71612;44.776;20.472;2023-08-30T02:55:05;98729.34;;;30.76;36.77
82041;BME280;71612;44.776;20.472;2023-08-30T02:57:30;98730.16;;;30.73;37.19
82041;BME280;71612;44.776;20.472;2023-08-30T02:59:56;98725.41;;;30.73;36.76
82041;BME280;71612;44.776;20.472;2023-08-30T03:02:21;98725.00;;;30.71;37.38
82041;BME280;71612;44.776;20.472;2023-08-30T03:04:47;98727.38;;;30.73;37.17
82041;BME280;71612;44.776;20.472;2023-08-30T03:07:12;98693.44;;;30.51;37.17
82041;BME280;71612;44.776;20.472;2023-08-30T03:09:37;98731.31;;;30.72;37.34
82041;BME280;71612;44.776;20.472;2023-08-30T03:12:04;98726.94;;;30.67;37.15
82041;BME280;71612;44.776;20.472;2023-08-30T03:14:30;98732.50;;;30.71;36.80
82041;BME280;71612;44.776;20.472;2023-08-30T03:16:55;98723.84;;;30.72;37.42
82041;BME280;71612;44.776;20.472;2023-08-30T03:19:20;98723.81;;;30.69;36.68
82041;BME280;71612;44.776;20.472;2023-08-30T03:21:46;98732.09;;;30.72;37.08
82041;BME280;71612;44.776;20.472;2023-08-30T03:24:11;98725.00;;;30.71;37.34
82041;BME280;71612;44.776;20.472;2023-08-30T03:26:39;98722.25;;;30.71;36.96
82041;BME280;71612;44.776;20.472;2023-08-30T03:29:06;98711.22;;;30.64;36.65
82041;BME280;71612;44.776;20.472;2023-08-30T03:31:31;98712.78;;;30.65;37.40
82041;BME280;71612;44.776;20.472;2023-08-30T03:33:56;98726.19;;;30.70;37.52
82041;BME280;71612;44.776;20.472;2023-08-30T03:36:22;98721.03;;;30.69;37.41
82041;BME280;71612;44.776;20.472;2023-08-30T03:38:47;98725.00;;;30.68;37.12
82041;BME280;71612;44.776;20.472;2023-08-30T03:41:13;98727.34;;;30.69;36.97
82041;BME280;71612;44.776;20.472;2023-08-30T03:43:39;98719.06;;;30.66;37.16
82041;BME280;71612;44.776;20.472;2023-08-30T03:46:05;98733.25;;;30.68;37.06
82041;BME280;71612;44.776;20.472;2023-08-30T03:48:31;98733.66;;;30.70;36.77
82041;BME280;71612;44.776;20.472;2023-08-30T03:50:57;98738.75;;;30.68;37.08
82041;BME280;71612;44.776;20.472;2023-08-30T03:53:23;98743.47;;;30.67;36.72
82041;BME280;71612;44.776;20.472;2023-08-30T03:55:48;98746.63;;;30.66;37.43
82041;BME280;71612;44.776;20.472;2023-08-30T03:58:14;98735.59;;;30.66;37.42
82041;BME280;71612;44.776;20.472;2023-08-30T04:00:39;98732.84;;;30.66;37.20
82041;BME280;71612;44.776;20.472;2023-08-30T04:03:09;98729.69;;;30.64;36.85
82041;BME280;71612;44.776;20.472;2023-08-30T04:05:36;98734.81;;;30.65;37.01
82041;BME280;71612;44.776;20.472;2023-08-30T04:08:02;98739.09;;;30.63;37.10
82041;BME280;71612;44.776;20.472;2023-08-30T04:10:28;98742.25;;;30.65;36.98
82041;BME280;71612;44.776;20.472;2023-08-30T04:12:53;98702.44;;;30.45;37.59
82041;BME280;71612;44.776;20.472;2023-08-30T04:15:19;98738.34;;;30.62;37.25
82041;BME280;71612;44.776;20.472;2023-08-30T04:17:44;98715.81;;;30.46;36.84
82041;BME280;71612;44.776;20.472;2023-08-30T04:20:10;98743.06;;;30.65;37.21
82041;BME280;71612;44.776;20.472;2023-08-30T04:22:36;98738.34;;;30.62;37.20
82041;BME280;71612;44.776;20.472;2023-08-30T04:25:02;98739.09;;;30.63;37.51
82041;BME280;71612;44.776;20.472;2023-08-30T04:27:28;98717.81;;;30.49;37.06
82041;BME280;71612;44.776;20.472;2023-08-30T04:29:53;98730.09;;;30.62;37.51
82041;BME280;71612;44.776;20.472;2023-08-30T04:32:19;98723.38;;;30.63;37.44
82041;BME280;71612;44.776;20.472;2023-08-30T04:34:44;98702.84;;;30.50;37.30
82041;BME280;71612;44.776;20.472;2023-08-30T04:37:09;98716.69;;;30.61;37.43
82041;BME280;71612;44.776;20.472;2023-08-30T04:39:35;98717.06;;;30.59;36.79
82041;BME280;71612;44.776;20.472;2023-08-30T04:42:00;98710.69;;;30.48;36.68
82041;BME280;71612;44.776;20.472;2023-08-30T04:44:28;98735.94;;;30.61;36.67
82041;BME280;71612;44.776;20.472;2023-08-30T04:46:54;98728.06;;;30.56;37.39
82041;BME280;71612;44.776;20.472;2023-08-30T04:49:20;98725.31;;;30.59;37.01
82041;BME280;71612;44.776;20.472;2023-08-30T04:51:45;98731.25;;;30.61;36.83
82041;BME280;71612;44.776;20.472;2023-08-30T04:54:10;98717.47;;;30.58;37.08
82041;BME280;71612;44.776;20.472;2023-08-30T04:56:36;98722.56;;;30.59;37.29
82041;BME280;71612;44.776;20.472;2023-08-30T04:59:01;98715.81;;;30.46;37.23
82041;BME280;71612;44.776;20.472;2023-08-30T05:01:30;98736.34;;;30.59;37.07
82041;BME280;71612;44.776;20.472;2023-08-30T05:03:55;98718.22;;;30.55;37.31
82041;BME280;71612;44.776;20.472;2023-08-30T05:06:21;98727.28;;;30.55;37.00
82041;BME280;71612;44.776;20.472;2023-08-30T05:08:46;98730.44;;;30.57;36.97
82041;BME280;71612;44.776;20.472;2023-08-30T05:11:12;98734.75;;;30.58;36.97
82041;BME280;71612;44.776;20.472;2023-08-30T05:13:37;98738.69;;;30.61;37.75
82041;BME280;71612;44.776;20.472;2023-08-30T05:16:03;98700.03;;;30.43;36.84
82041;BME280;71612;44.776;20.472;2023-08-30T05:18:28;98724.94;;;30.61;36.87
82041;BME280;71612;44.776;20.472;2023-08-30T05:20:54;98727.31;;;30.62;37.34
82041;BME280;71612;44.776;20.472;2023-08-30T05:23:19;98704.41;;;30.48;37.17
82041;BME280;71612;44.776;20.472;2023-08-30T05:25:45;98727.31;;;30.62;37.27
82041;BME280;71612;44.776;20.472;2023-08-30T05:28:10;98686.31;;;30.47;37.29
82041;BME280;71612;44.776;20.472;2023-08-30T05:30:36;98714.72;;;30.61;37.32
82041;BME280;71612;44.776;20.472;2023-08-30T05:33:02;98721.03;;;30.62;37.09
82041;BME280;71612;44.776;20.472;2023-08-30T05:35:28;98728.47;;;30.61;36.90
82041;BME280;71612;44.776;20.472;2023-08-30T05:37:53;98744.22;;;30.61;37.14
82041;BME280;71612;44.776;20.472;2023-08-30T05:40:18;98745.41;;;30.60;37.30
82041;BME280;71612;44.776;20.472;2023-08-30T05:42:44;98749.72;;;30.61;37.11
82041;BME280;71612;44.776;20.472;2023-08-30T05:45:10;98759.94;;;30.60;37.68
82041;BME280;71612;44.776;20.472;2023-08-30T05:47:36;98761.13;;;30.63;37.79
82041;BME280;71612;44.776;20.472;2023-08-30T05:50:01;98761.94;;;30.63;37.51
82041;BME280;71612;44.776;20.472;2023-08-30T05:52:27;98752.09;;;30.62;37.00
82041;BME280;71612;44.776;20.472;2023-08-30T05:54:52;98767.41;;;30.60;37.95
82041;BME280;71612;44.776;20.472;2023-08-30T05:57:18;98775.69;;;30.63;37.81
82041;BME280;71612;44.776;20.472;2023-08-30T05:59:43;98778.06;;;30.65;38.06
82041;BME280;71612;44.776;20.472;2023-08-30T06:02:09;98774.13;;;30.62;37.49
82041;BME280;71612;44.776;20.472;2023-08-30T06:04:35;98764.66;;;30.60;37.78
82041;BME280;71612;44.776;20.472;2023-08-30T06:07:01;98760.72;;;30.57;37.78
82041;BME280;71612;44.776;20.472;2023-08-30T06:09:26;98782.00;;;30.64;38.22
82041;BME280;71612;44.776;20.472;2023-08-30T06:11:52;98791.41;;;30.63;38.02
82041;BME280;71612;44.776;20.472;2023-08-30T06:14:17;98793.34;;;30.55;37.55
82041;BME280;71612;44.776;20.472;2023-08-30T06:16:42;98799.66;;;30.59;38.01
82041;BME280;71612;44.776;20.472;2023-08-30T06:19:10;98808.31;;;30.58;38.37
82041;BME280;71612;44.776;20.472;2023-08-30T06:21:36;98805.91;;;30.56;37.93
82041;BME280;71612;44.776;20.472;2023-08-30T06:24:01;98817.72;;;30.57;38.46
82041;BME280;71612;44.776;20.472;2023-08-30T06:26:26;98795.94;;;30.41;38.43
82041;BME280;71612;44.776;20.472;2023-08-30T06:28:52;98830.34;;;30.61;38.63
82041;BME280;71612;44.776;20.472;2023-08-30T06:31:17;98800.31;;;30.46;38.38
82041;BME280;71612;44.776;20.472;2023-08-30T06:33:43;98824.03;;;30.61;38.07
82041;BME280;71612;44.776;20.472;2023-08-30T06:36:09;98835.03;;;30.61;38.54
82041;BME280;71612;44.776;20.472;2023-08-30T06:38:37;98834.69;;;30.62;37.99
82041;BME280;71612;44.776;20.472;2023-08-30T06:41:02;98836.63;;;30.62;38.08
82041;BME280;71612;44.776;20.472;2023-08-30T06:43:28;98829.94;;;30.63;38.03
82041;BME280;71612;44.776;20.472;2023-08-30T06:45:53;98826.44;;;30.62;38.75
82041;BME280;71612;44.776;20.472;2023-08-30T06:48:18;98809.44;;;30.53;38.89
82041;BME280;71612;44.776;20.472;2023-08-30T06:50:44;98822.09;;;30.61;38.35
82041;BME280;71612;44.776;20.472;2023-08-30T06:53:09;98800.31;;;30.46;38.48
82041;BME280;71612;44.776;20.472;2023-08-30T06:55:35;98817.31;;;30.55;39.05
82041;BME280;71612;44.776;20.472;2023-08-30T06:58:02;98810.66;;;30.56;38.39
82041;BME280;71612;44.776;20.472;2023-08-30T07:00:28;98818.84;;;30.49;35.60
82041;BME280;71612;44.776;20.472;2023-08-30T07:02:53;98817.25;;;30.07;33.19
82041;BME280;71612;44.776;20.472;2023-08-30T07:05:19;98839.81;;;29.87;30.68
82041;BME280;71612;44.776;20.472;2023-08-30T07:07:44;98840.50;;;29.51;29.51
82041;BME280;71612;44.776;20.472;2023-08-30T07:10:10;98859.06;;;29.31;28.21
82041;BME280;71612;44.776;20.472;2023-08-30T07:12:35;98858.28;;;29.04;26.98
82041;BME280;71612;44.776;20.472;2023-08-30T07:15:02;98857.88;;;28.80;26.21
82041;BME280;71612;44.776;20.472;2023-08-30T07:17:29;98860.66;;;28.57;25.72
82041;BME280;71612;44.776;20.472;2023-08-30T07:19:54;98863.88;;;28.40;25.38
82041;BME280;71612;44.776;20.472;2023-08-30T07:22:19;98872.63;;;28.26;25.68
82041;BME280;71612;44.776;20.472;2023-08-30T07:24:45;98841.13;;;27.98;25.64
82041;BME280;71612;44.776;20.472;2023-08-30T07:27:11;98854.50;;;27.99;25.90
82041;BME280;71612;44.776;20.472;2023-08-30T07:29:40;98867.84;;;28.01;26.47
82041;BME280;71612;44.776;20.472;2023-08-30T07:32:06;98865.50;;;27.83;27.85
82041;BME280;71612;44.776;20.472;2023-08-30T07:34:32;98875.25;;;27.81;26.34
82041;BME280;71612;44.776;20.472;2023-08-30T07:36:57;98866.59;;;27.60;25.83
82041;BME280;71612;44.776;20.472;2023-08-30T07:39:22;98875.22;;;27.43;25.21
82041;BME280;71612;44.776;20.472;2023-08-30T07:41:48;98879.28;;;27.33;25.26
82041;BME280;71612;44.776;20.472;2023-08-30T07:44:13;98876.75;;;27.25;26.66
82041;BME280;71612;44.776;20.472;2023-08-30T07:46:39;98881.84;;;27.26;29.52
82041;BME280;71612;44.776;20.472;2023-08-30T07:49:05;98881.28;;;27.17;27.39
82041;BME280;71612;44.776;20.472;2023-08-30T07:51:30;98884.84;;;27.02;26.15
82041;BME280;71612;44.776;20.472;2023-08-30T07:53:56;98881.13;;;26.94;28.62
82041;BME280;71612;44.776;20.472;2023-08-30T07:56:21;98886.34;;;26.99;30.31
82041;BME280;71612;44.776;20.472;2023-08-30T07:58:47;98897.09;;;27.08;33.03
82041;BME280;71612;44.776;20.472;2023-08-30T08:01:12;98897.97;;;27.12;31.98
82041;BME280;71612;44.776;20.472;2023-08-30T08:03:38;98895.94;;;27.09;34.93
82041;BME280;71612;44.776;20.472;2023-08-30T08:06:03;98903.09;;;27.13;32.00
82041;BME280;71612;44.776;20.472;2023-08-30T08:08:28;98898.84;;;27.16;35.66
82041;BME280;71612;44.776;20.472;2023-08-30T08:10:55;98896.97;;;27.20;33.48
82041;BME280;71612;44.776;20.472;2023-08-30T08:13:20;98904.84;;;27.22;35.88
82041;BME280;71612;44.776;20.472;2023-08-30T08:15:46;98905.03;;;27.13;32.96
82041;BME280;71612;44.776;20.472;2023-08-30T08:18:11;98913.84;;;27.22;36.38
82041;BME280;71612;44.776;20.472;2023-08-30T08:20:37;98914.13;;;27.17;33.30
82041;BME280;71612;44.776;20.472;2023-08-30T08:23:04;98916.88;;;27.17;36.44
82041;BME280;71612;44.776;20.472;2023-08-30T08:25:29;98915.72;;;27.18;34.98
82041;BME280;71612;44.776;20.472;2023-08-30T08:27:55;98910.59;;;27.16;36.81
82041;BME280;71612;44.776;20.472;2023-08-30T08:30:20;98881.66;;;27.00;34.88
82041;BME280;71612;44.776;20.472;2023-08-30T08:32:46;98909.00;;;27.15;37.30
82041;BME280;71612;44.776;20.472;2023-08-30T08:35:13;98899.47;;;27.09;34.44
82041;BME280;71612;44.776;20.472;2023-08-30T08:37:38;98896.91;;;27.16;37.75
82041;BME280;71612;44.776;20.472;2023-08-30T08:40:04;98887.66;;;27.05;33.98
82041;BME280;71612;44.776;20.472;2023-08-30T08:42:34;98906.25;;;27.15;37.22
82041;BME280;71612;44.776;20.472;2023-08-30T08:45:02;98894.88;;;27.13;35.45
82041;BME280;71612;44.776;20.472;2023-08-30T08:47:29;98888.16;;;27.11;36.76
82041;BME280;71612;44.776;20.472;2023-08-30T08:49:55;98884.88;;;27.21;35.33
82041;BME280;71612;44.776;20.472;2023-08-30T08:52:21;98885.47;;;27.46;35.54
82041;BME280;71612;44.776;20.472;2023-08-30T08:54:47;98879.22;;;27.64;35.62
82041;BME280;71612;44.776;20.472;2023-08-30T08:57:13;98888.66;;;27.86;35.65
82041;BME280;71612;44.776;20.472;2023-08-30T08:59:39;98878.44;;;28.02;35.54
82041;BME280;71612;44.776;20.472;2023-08-30T09:02:04;98845.47;;;27.99;35.37
82041;BME280;71612;44.776;20.472;2023-08-30T09:04:31;98873.53;;;28.34;35.76
82041;BME280;71612;44.776;20.472;2023-08-30T09:06:58;98877.25;;;28.45;35.83
82041;BME280;71612;44.776;20.472;2023-08-30T09:09:25;98862.16;;;28.54;36.10
82041;BME280;71612;44.776;20.472;2023-08-30T09:11:51;98854.13;;;28.65;35.60
82041;BME280;71612;44.776;20.472;2023-08-30T09:14:17;98856.19;;;28.72;35.62
82041;BME280;71612;44.776;20.472;2023-08-30T09:16:43;98875.28;;;28.87;36.07
82041;BME280;71612;44.776;20.472;2023-08-30T09:19:08;98875.81;;;28.96;36.80
82041;BME280;71612;44.776;20.472;2023-08-30T09:21:35;98871.34;;;29.11;37.36
82041;BME280;71612;44.776;20.472;2023-08-30T09:24:03;98863.69;;;29.23;38.54
82041;BME280;71612;44.776;20.472;2023-08-30T09:26:29;98837.19;;;29.12;38.33
82041;BME280;71612;44.776;20.472;2023-08-30T09:29:02;98858.03;;;29.39;37.94
82041;BME280;71612;44.776;20.472;2023-08-30T09:31:36;98862.13;;;29.52;38.31
82041;BME280;71612;44.776;20.472;2023-08-30T09:34:03;98855.94;;;29.59;38.47
82041;BME280;71612;44.776;20.472;2023-08-30T09:36:36;98869.44;;;29.71;38.59
82041;BME280;71612;44.776;20.472;2023-08-30T09:41:27;98858.22;;;29.83;38.57
82041;BME280;71612;44.776;20.472;2023-08-30T09:43:52;98866.16;;;29.91;38.01
82041;BME280;71612;44.776;20.472;2023-08-30T09:46:18;98879.19;;;29.98;38.10
82041;BME280;71612;44.776;20.472;2023-08-30T09:48:43;98860.34;;;29.96;38.18
82041;BME280;71612;44.776;20.472;2023-08-30T09:51:11;98871.84;;;30.05;38.48
82041;BME280;71612;44.776;20.472;2023-08-30T09:53:42;98865.63;;;30.12;38.30
82041;BME280;71612;44.776;20.472;2023-08-30T09:56:11;98868.81;;;30.17;38.32
82041;BME280;71612;44.776;20.472;2023-08-30T09:58:39;98863.88;;;29.97;35.19
82041;BME280;71612;44.776;20.472;2023-08-30T10:01:06;98872.16;;;29.67;32.50
82041;BME280;71612;44.776;20.472;2023-08-30T10:03:33;98880.38;;;29.37;31.22
82041;BME280;71612;44.776;20.472;2023-08-30T10:05:59;98889.75;;;29.10;29.53
82041;BME280;71612;44.776;20.472;2023-08-30T10:08:29;98866.00;;;28.73;28.69
82041;BME280;71612;44.776;20.472;2023-08-30T10:10:58;98886.63;;;28.63;27.60
82041;BME280;71612;44.776;20.472;2023-08-30T10:13:25;98873.53;;;28.34;26.98
82041;BME280;71612;44.776;20.472;2023-08-30T10:15:53;98876.28;;;28.34;27.36
82041;BME280;71612;44.776;20.472;2023-08-30T10:18:25;98876.09;;;28.23;27.38
82041;BME280;71612;44.776;20.472;2023-08-30T10:20:54;98837.94;;;27.95;28.21
82041;BME280;71612;44.776;20.472;2023-08-30T10:23:21;98856.81;;;27.97;29.44
82041;BME280;71612;44.776;20.472;2023-08-30T10:25:49;98849.34;;;27.78;27.55
82041;BME280;71612;44.776;20.472;2023-08-30T10:28:16;98862.13;;;27.71;26.92
82041;BME280;71612;44.776;20.472;2023-08-30T10:30:42;98837.53;;;27.55;30.24
82041;BME280;71612;44.776;20.472;2023-08-30T10:33:12;98855.63;;;27.60;29.04
82041;BME280;71612;44.776;20.472;2023-08-30T10:35:47;98863.63;;;27.49;28.48
82041;BME280;71612;44.776;20.472;2023-08-30T10:38:24;98864.50;;;27.53;31.60
82041;BME280;71612;44.776;20.472;2023-08-30T10:40:51;98856.81;;;27.43;30.18
82041;BME280;71612;44.776;20.472;2023-08-30T10:43:16;98862.34;;;27.62;30.37
82041;BME280;71612;44.776;20.472;2023-08-30T10:45:59;98860.09;;;27.87;30.68
82041;BME280;71612;44.776;20.472;2023-08-30T10:48:34;98859.75;;;28.08;31.29
82041;BME280;71612;44.776;20.472;2023-08-30T10:51:00;98829.22;;;28.09;31.51
82041;BME280;71612;44.776;20.472;2023-08-30T10:53:29;98852.06;;;28.36;31.31
82041;BME280;71612;44.776;20.472;2023-08-30T10:56:11;98854.09;;;28.61;31.54
82041;BME280;71612;44.776;20.472;2023-08-30T10:58:43;98848.38;;;28.74;31.69
82041;BME280;71612;44.776;20.472;2023-08-30T11:01:10;98837.00;;;28.72;31.70
82041;BME280;71612;44.776;20.472;2023-08-30T11:03:40;98850.25;;;28.92;32.01
82041;BME280;71612;44.776;20.472;2023-08-30T11:06:05;98870.13;;;29.08;32.14
82041;BME280;71612;44.776;20.472;2023-08-30T11:08:31;98862.44;;;29.17;32.25
82041;BME280;71612;44.776;20.472;2023-08-30T11:11:07;98864.56;;;29.31;32.03
82041;BME280;71612;44.776;20.472;2023-08-30T11:13:34;98833.38;;;29.16;33.27
82041;BME280;71612;44.776;20.472;2023-08-30T11:16:03;98849.31;;;29.33;33.63
82041;BME280;71612;44.776;20.472;2023-08-30T11:18:39;98867.56;;;29.49;33.47
82041;BME280;71612;44.776;20.472;2023-08-30T11:21:06;98866.44;;;29.53;33.40
82041;BME280;71612;44.776;20.472;2023-08-30T11:23:33;98861.78;;;29.57;33.82
82041;BME280;71612;44.776;20.472;2023-08-30T11:25:58;98859.03;;;29.57;33.81
82041;BME280;71612;44.776;20.472;2023-08-30T11:28:24;98860.25;;;29.60;32.63
82041;BME280;71612;44.776;20.472;2023-08-30T11:30:54;98851.22;;;29.29;30.31
82041;BME280;71612;44.776;20.472;2023-08-30T11:33:20;98837.56;;;28.84;28.55
82041;BME280;71612;44.776;20.472;2023-08-30T11:35:49;98857.31;;;28.67;27.20
82041;BME280;71612;44.776;20.472;2023-08-30T11:38:14;98847.41;;;28.40;26.50
82041;BME280;71612;44.776;20.472;2023-08-30T11:40:40;98852.38;;;28.12;25.57
82041;BME280;71612;44.776;20.472;2023-08-30T11:43:06;98855.13;;;27.92;25.23
82041;BME280;71612;44.776;20.472;2023-08-30T11:45:33;98847.69;;;27.74;24.53
82041;BME280;71612;44.776;20.472;2023-08-30T11:48:02;98831.53;;;27.50;24.43
82041;BME280;71612;44.776;20.472;2023-08-30T11:50:28;98847.47;;;27.44;24.22
82041;BME280;71612;44.776;20.472;2023-08-30T11:52:54;98847.31;;;27.37;26.59
82041;BME280;71612;44.776;20.472;2023-08-30T11:55:21;98822.53;;;27.14;27.34
82041;BME280;71612;44.776;20.472;2023-08-30T11:57:50;98846.38;;;27.14;25.55
82041;BME280;71612;44.776;20.472;2023-08-30T12:00:18;98834.84;;;26.89;27.49
82041;BME280;71612;44.776;20.472;2023-08-30T12:02:46;98841.66;;;26.95;30.32
82041;BME280;71612;44.776;20.472;2023-08-30T12:05:15;98841.56;;;26.92;30.93
82041;BME280;71612;44.776;20.472;2023-08-30T12:07:41;98845.47;;;26.91;31.19
82041;BME280;71612;44.776;20.472;2023-08-30T12:10:08;98850.22;;;26.94;33.28
82041;BME280;71612;44.776;20.472;2023-08-30T12:12:34;98847.41;;;26.90;31.80
82041;BME280;71612;44.776;20.472;2023-08-30T12:15:07;98853.44;;;26.80;29.59
82041;BME280;71612;44.776;20.472;2023-08-30T12:17:34;98834.44;;;26.72;34.54
82041;BME280;71612;44.776;20.472;2023-08-30T12:20:00;98848.41;;;26.82;33.59
82041;BME280;71612;44.776;20.472;2023-08-30T12:22:38;98849.00;;;26.91;35.01
82041;BME280;71612;44.776;20.472;2023-08-30T12:25:04;98837.75;;;26.96;35.67
82041;BME280;71612;44.776;20.472;2023-08-30T12:27:40;98834.66;;;26.98;35.96
82041;BME280;71612;44.776;20.472;2023-08-30T12:30:06;98829.34;;;27.05;38.23
82041;BME280;71612;44.776;20.472;2023-08-30T12:32:32;98822.81;;;27.09;37.87
82041;BME280;71612;44.776;20.472;2023-08-30T12:34:57;98824.47;;;27.14;36.02
82041;BME280;71612;44.776;20.472;2023-08-30T12:37:24;98826.16;;;27.18;35.93
82041;BME280;71612;44.776;20.472;2023-08-30T12:39:49;98817.41;;;27.13;35.17
82041;BME280;71612;44.776;20.472;2023-08-30T12:42:14;98819.81;;;27.14;36.01
82041;BME280;71612;44.776;20.472;2023-08-30T12:44:40;98818.22;;;27.13;34.67
82041;BME280;71612;44.776;20.472;2023-08-30T12:47:05;98815.91;;;27.15;36.94
82041;BME280;71612;44.776;20.472;2023-08-30T12:49:31;98797.69;;;27.04;36.84